sensor_id;sensor_type;location;lat;lon;timestamp;P1;durP1;ratioP1;P2;durP2;ratioP2
8219;SDS011;4151;51.110;7.020;2023-11-19T00:00:10;1.73;;;1.63;;
8219;SDS011;4151;51.110;7.020;2023-11-19T00:02:37;3.33;;;1.23;;
8219;SDS011;4151;51.110;7.020;2023-11-19T00:05:03;1.30;;;1.20;;
8219;SDS011;4151;51.110;7.020;2023-11-19T00:07:29;1.80;;;1.40;;
8219;SDS011;4151;51.110;7.020;2023-11-19T00:09:55;1.60;;;1.50;;
8219;SDS011;4151;51.110;7.020;2023-11-19T00:12:20;1.43;;;1.17;;
8219;SDS011;4151;51.110;7.020;2023-11-19T00:14:47;1.60;;;1.50;;
8219;SDS011;4151;51.110;7.020;2023-11-19T00:17:13;2.13;;;1.33;;
8219;SDS011;4151;51.110;7.020;2023-11-19T00:19:38;1.80;;;1.70;;
8219;SDS011;4151;51.110;7.020;2023-11-19T00:22:04;1.60;;;1.20;;
8219;SDS011;4151;51.110;7.020;2023-11-19T00:24:30;1.60;;;1.43;;
8219;SDS011;4151;51.110;7.020;2023-11-19T00:26:55;1.60;;;1.20;;
8219;SDS011;4151;51.110;7.020;2023-11-19T00:29:21;1.50;;;1.40;;
8219;SDS011;4151;51.110;7.020;2023-11-19T00:31:47;3.03;;;1.70;;
8219;SDS011;4151;51.110;7.020;2023-11-19T00:34:12;1.60;;;1.43;;
8219;SDS011;4151;51.110;7.020;2023-11-19T00:36:38;1.90;;;1.10;;
8219;SDS011;4151;51.110;7.020;2023-11-19T00:39:04;1.77;;;1.20;;
8219;SDS011;4151;51.110;7.020;2023-11-19T00:41:30;1.47;;;1.13;;
8219;SDS011;4151;51.110;7.020;2023-11-19T00:43:56;1.43;;;1.20;;
8219;SDS011;4151;51.110;7.020;2023-11-19T00:46:22;2.03;;;1.33;;
8219;SDS011;4151;51.110;7.020;2023-11-19T00:48:47;1.37;;;1.20;;
8219;SDS011;4151;51.110;7.020;2023-11-19T00:51:13;1.83;;;1.20;;
8219;SDS011;4151;51.110;7.020;2023-11-19T00:53:39;3.87;;;1.20;;
8219;SDS011;4151;51.110;7.020;2023-11-19T00:56:05;2.47;;;1.50;;
8219;SDS011;4151;51.110;7.020;2023-11-19T00:58:30;2.40;;;1.53;;
8219;SDS011;4151;51.110;7.020;2023-11-19T01:00:57;1.90;;;1.30;;
8219;SDS011;4151;51.110;7.020;2023-11-19T01:03:22;3.17;;;1.63;;
8219;SDS011;4151;51.110;7.020;2023-11-19T01:05:48;2.23;;;1.33;;
8219;SDS011;4151;51.110;7.020;2023-11-19T01:08:14;2.47;;;1.30;;
8219;SDS011;4151;51.110;7.020;2023-11-19T01:10:40;1.90;;;1.43;;
8219;SDS011;4151;51.110;7.020;2023-11-19T01:13:06;2.03;;;1.40;;
8219;SDS011;4151;51.110;7.020;2023-11-19T01:15:32;1.63;;;1.53;;
8219;SDS011;4151;51.110;7.020;2023-11-19T01:17:57;2.40;;;1.70;;
8219;SDS011;4151;51.110;7.020;2023-11-19T01:20:23;4.30;;;1.67;;
8219;SDS011;4151;51.110;7.020;2023-11-19T01:22:49;1.30;;;1.20;;
8219;SDS011;4151;51.110;7.020;2023-11-19T01:25:15;4.73;;;1.93;;
8219;SDS011;4151;51.110;7.020;2023-11-19T01:27:41;2.90;;;1.40;;
8219;SDS011;4151;51.110;7.020;2023-11-19T01:30:07;1.77;;;1.37;;
8219;SDS011;4151;51.110;7.020;2023-11-19T01:32:34;2.50;;;1.40;;
8219;SDS011;4151;51.110;7.020;2023-11-19T01:35:01;1.90;;;1.50;;
8219;SDS011;4151;51.110;7.020;2023-11-19T01:37:28;3.80;;;1.77;;
8219;SDS011;4151;51.110;7.020;2023-11-19T01:39:54;2.37;;;1.63;;
8219;SDS011;4151;51.110;7.020;2023-11-19T01:42:19;1.73;;;1.60;;
8219;SDS011;4151;51.110;7.020;2023-11-19T01:44:54;1.60;;;1.20;;
8219;SDS011;4151;51.110;7.020;2023-11-19T01:47:23;6.73;;;1.70;;
8219;SDS011;4151;51.110;7.020;2023-11-19T01:49:50;1.57;;;1.40;;
8219;SDS011;4151;51.110;7.020;2023-11-19T01:52:16;5.20;;;2.00;;
8219;SDS011;4151;51.110;7.020;2023-11-19T01:54:42;2.23;;;2.03;;
8219;SDS011;4151;51.110;7.020;2023-11-19T01:57:08;3.40;;;1.97;;
8219;SDS011;4151;51.110;7.020;2023-11-19T01:59:34;1.63;;;1.53;;
8219;SDS011;4151;51.110;7.020;2023-11-19T02:02:00;2.80;;;1.80;;
8219;SDS011;4151;51.110;7.020;2023-11-19T02:04:25;7.63;;;2.50;;
8219;SDS011;4151;51.110;7.020;2023-11-19T02:06:51;5.90;;;1.90;;
8219;SDS011;4151;51.110;7.020;2023-11-19T02:09:21;3.90;;;2.10;;
8219;SDS011;4151;51.110;7.020;2023-11-19T02:11:46;4.33;;;2.70;;
8219;SDS011;4151;51.110;7.020;2023-11-19T02:14:16;2.37;;;2.10;;
8219;SDS011;4151;51.110;7.020;2023-11-19T02:16:43;7.23;;;2.20;;
8219;SDS011;4151;51.110;7.020;2023-11-19T02:19:09;2.77;;;2.23;;
8219;SDS011;4151;51.110;7.020;2023-11-19T02:21:36;2.03;;;1.80;;
8219;SDS011;4151;51.110;7.020;2023-11-19T02:24:03;5.23;;;1.90;;
8219;SDS011;4151;51.110;7.020;2023-11-19T02:27:20;4.10;;;2.30;;
8219;SDS011;4151;51.110;7.020;2023-11-19T02:29:27;6.30;;;2.33;;
8219;SDS011;4151;51.110;7.020;2023-11-19T02:31:53;2.53;;;2.07;;
8219;SDS011;4151;51.110;7.020;2023-11-19T02:34:20;3.60;;;2.53;;
8219;SDS011;4151;51.110;7.020;2023-11-19T02:36:46;5.67;;;3.07;;
8219;SDS011;4151;51.110;7.020;2023-11-19T02:39:12;3.33;;;2.10;;
8219;SDS011;4151;51.110;7.020;2023-11-19T02:41:38;8.63;;;2.30;;
8219;SDS011;4151;51.110;7.020;2023-11-19T02:44:05;2.77;;;2.17;;
8219;SDS011;4151;51.110;7.020;2023-11-19T02:46:33;6.30;;;3.27;;
8219;SDS011;4151;51.110;7.020;2023-11-19T02:48:59;5.40;;;2.00;;
8219;SDS011;4151;51.110;7.020;2023-11-19T02:51:24;12.73;;;2.60;;
8219;SDS011;4151;51.110;7.020;2023-11-19T02:53:50;10.93;;;2.90;;
8219;SDS011;4151;51.110;7.020;2023-11-19T02:56:15;8.47;;;2.20;;
8219;SDS011;4151;51.110;7.020;2023-11-19T02:58:50;5.67;;;2.10;;
8219;SDS011;4151;51.110;7.020;2023-11-19T03:01:21;13.17;;;2.93;;
8219;SDS011;4151;51.110;7.020;2023-11-19T03:03:54;6.10;;;2.30;;
8219;SDS011;4151;51.110;7.020;2023-11-19T03:06:22;5.80;;;2.23;;
8219;SDS011;4151;51.110;7.020;2023-11-19T03:08:47;4.47;;;2.43;;
8219;SDS011;4151;51.110;7.020;2023-11-19T03:11:13;10.70;;;3.33;;
8219;SDS011;4151;51.110;7.020;2023-11-19T03:13:39;12.53;;;3.60;;
8219;SDS011;4151;51.110;7.020;2023-11-19T03:16:05;8.60;;;2.77;;
8219;SDS011;4151;51.110;7.020;2023-11-19T03:18:31;14.50;;;3.07;;
8219;SDS011;4151;51.110;7.020;2023-11-19T03:20:57;8.47;;;2.70;;
8219;SDS011;4151;51.110;7.020;2023-11-19T03:23:23;8.63;;;2.73;;
8219;SDS011;4151;51.110;7.020;2023-11-19T03:25:52;9.00;;;2.50;;
8219;SDS011;4151;51.110;7.020;2023-11-19T03:28:18;8.80;;;3.07;;
8219;SDS011;4151;51.110;7.020;2023-11-19T03:30:44;9.10;;;2.80;;
8219;SDS011;4151;51.110;7.020;2023-11-19T03:33:09;14.30;;;3.23;;
8219;SDS011;4151;51.110;7.020;2023-11-19T03:35:35;12.83;;;2.50;;
8219;SDS011;4151;51.110;7.020;2023-11-19T03:38:00;12.50;;;2.80;;
8219;SDS011;4151;51.110;7.020;2023-11-19T03:40:26;12.53;;;2.80;;
8219;SDS011;4151;51.110;7.020;2023-11-19T03:42:51;16.27;;;3.00;;
8219;SDS011;4151;51.110;7.020;2023-11-19T03:45:17;12.60;;;2.80;;
8219;SDS011;4151;51.110;7.020;2023-11-19T03:47:43;15.40;;;3.50;;
8219;SDS011;4151;51.110;7.020;2023-11-19T03:50:08;17.90;;;2.90;;
8219;SDS011;4151;51.110;7.020;2023-11-19T03:52:34;22.73;;;3.80;;
8219;SDS011;4151;51.110;7.020;2023-11-19T03:55:01;22.23;;;3.17;;
8219;SDS011;4151;51.110;7.020;2023-11-19T03:57:28;24.60;;;4.07;;
8219;SDS011;4151;51.110;7.020;2023-11-19T03:59:53;26.57;;;3.40;;
8219;SDS011;4151;51.110;7.020;2023-11-19T04:02:20;12.63;;;2.70;;
8219;SDS011;4151;51.110;7.020;2023-11-19T04:04:46;10.63;;;3.40;;
8219;SDS011;4151;51.110;7.020;2023-11-19T04:07:11;22.30;;;3.43;;
8219;SDS011;4151;51.110;7.020;2023-11-19T04:09:37;21.53;;;2.97;;
8219;SDS011;4151;51.110;7.020;2023-11-19T04:12:03;20.23;;;3.10;;
8219;SDS011;4151;51.110;7.020;2023-11-19T04:14:28;27.97;;;4.77;;
8219;SDS011;4151;51.110;7.020;2023-11-19T04:16:54;20.93;;;3.17;;
8219;SDS011;4151;51.110;7.020;2023-11-19T04:19:20;29.90;;;3.37;;
8219;SDS011;4151;51.110;7.020;2023-11-19T04:21:46;20.70;;;3.80;;
8219;SDS011;4151;51.110;7.020;2023-11-19T04:24:12;14.27;;;3.03;;
8219;SDS011;4151;51.110;7.020;2023-11-19T04:26:42;16.23;;;3.20;;
8219;SDS011;4151;51.110;7.020;2023-11-19T04:29:09;16.33;;;2.97;;
8219;SDS011;4151;51.110;7.020;2023-11-19T04:31:39;25.37;;;3.10;;
8219;SDS011;4151;51.110;7.020;2023-11-19T04:34:05;25.43;;;3.20;;
8219;SDS011;4151;51.110;7.020;2023-11-19T04:36:31;12.70;;;2.57;;
8219;SDS011;4151;51.110;7.020;2023-11-19T04:38:58;16.43;;;2.90;;
8219;SDS011;4151;51.110;7.020;2023-11-19T04:41:24;28.13;;;3.27;;
8219;SDS011;4151;51.110;7.020;2023-11-19T04:43:52;15.43;;;2.77;;
8219;SDS011;4151;51.110;7.020;2023-11-19T04:46:21;12.27;;;2.57;;
8219;SDS011;4151;51.110;7.020;2023-11-19T04:48:46;24.23;;;3.37;;
8219;SDS011;4151;51.110;7.020;2023-11-19T04:51:12;10.40;;;2.57;;
8219;SDS011;4151;51.110;7.020;2023-11-19T04:53:38;12.70;;;3.57;;
8219;SDS011;4151;51.110;7.020;2023-11-19T04:56:10;18.07;;;3.10;;
8219;SDS011;4151;51.110;7.020;2023-11-19T04:58:36;10.20;;;2.50;;
8219;SDS011;4151;51.110;7.020;2023-11-19T05:01:05;16.70;;;3.07;;
8219;SDS011;4151;51.110;7.020;2023-11-19T05:03:31;16.93;;;2.80;;
8219;SDS011;4151;51.110;7.020;2023-11-19T05:05:57;14.90;;;2.53;;
8219;SDS011;4151;51.110;7.020;2023-11-19T05:08:23;17.53;;;3.77;;
8219;SDS011;4151;51.110;7.020;2023-11-19T05:10:49;16.13;;;3.13;;
8219;SDS011;4151;51.110;7.020;2023-11-19T05:13:15;13.27;;;3.90;;
8219;SDS011;4151;51.110;7.020;2023-11-19T05:15:41;21.40;;;2.83;;
8219;SDS011;4151;51.110;7.020;2023-11-19T05:18:07;17.80;;;3.30;;
8219;SDS011;4151;51.110;7.020;2023-11-19T05:20:33;13.53;;;2.47;;
8219;SDS011;4151;51.110;7.020;2023-11-19T05:22:59;16.03;;;2.83;;
8219;SDS011;4151;51.110;7.020;2023-11-19T05:25:25;16.53;;;2.97;;
8219;SDS011;4151;51.110;7.020;2023-11-19T05:27:54;9.57;;;2.50;;
8219;SDS011;4151;51.110;7.020;2023-11-19T05:30:20;13.97;;;2.50;;
8219;SDS011;4151;51.110;7.020;2023-11-19T05:32:45;14.00;;;2.80;;
8219;SDS011;4151;51.110;7.020;2023-11-19T05:35:11;10.37;;;2.60;;
8219;SDS011;4151;51.110;7.020;2023-11-19T05:37:37;13.23;;;3.10;;
8219;SDS011;4151;51.110;7.020;2023-11-19T05:40:03;27.63;;;3.43;;
8219;SDS011;4151;51.110;7.020;2023-11-19T05:42:31;32.07;;;3.67;;
8219;SDS011;4151;51.110;7.020;2023-11-19T05:44:57;19.00;;;2.80;;
8219;SDS011;4151;51.110;7.020;2023-11-19T05:47:23;26.27;;;3.77;;
8219;SDS011;4151;51.110;7.020;2023-11-19T05:49:48;13.97;;;2.17;;
8219;SDS011;4151;51.110;7.020;2023-11-19T05:52:14;19.87;;;2.73;;
8219;SDS011;4151;51.110;7.020;2023-11-19T05:54:39;9.27;;;2.67;;
8219;SDS011;4151;51.110;7.020;2023-11-19T05:57:05;16.07;;;3.50;;
8219;SDS011;4151;51.110;7.020;2023-11-19T05:59:34;21.70;;;3.27;;
8219;SDS011;4151;51.110;7.020;2023-11-19T06:02:01;27.40;;;3.17;;
8219;SDS011;4151;51.110;7.020;2023-11-19T06:04:27;18.07;;;3.73;;
8219;SDS011;4151;51.110;7.020;2023-11-19T06:06:54;21.00;;;5.00;;
8219;SDS011;4151;51.110;7.020;2023-11-19T06:09:22;16.87;;;2.50;;
8219;SDS011;4151;51.110;7.020;2023-11-19T06:11:48;13.20;;;3.37;;
8219;SDS011;4151;51.110;7.020;2023-11-19T06:14:17;23.60;;;2.80;;
8219;SDS011;4151;51.110;7.020;2023-11-19T06:16:43;16.17;;;2.80;;
8219;SDS011;4151;51.110;7.020;2023-11-19T06:19:09;16.70;;;3.37;;
8219;SDS011;4151;51.110;7.020;2023-11-19T06:21:36;22.37;;;3.40;;
8219;SDS011;4151;51.110;7.020;2023-11-19T06:24:02;29.60;;;4.13;;
8219;SDS011;4151;51.110;7.020;2023-11-19T06:26:28;13.87;;;3.00;;
8219;SDS011;4151;51.110;7.020;2023-11-19T06:28:53;26.80;;;3.40;;
8219;SDS011;4151;51.110;7.020;2023-11-19T06:31:19;24.93;;;3.83;;
8219;SDS011;4151;51.110;7.020;2023-11-19T06:33:45;21.97;;;3.90;;
8219;SDS011;4151;51.110;7.020;2023-11-19T06:36:13;23.63;;;2.43;;
8219;SDS011;4151;51.110;7.020;2023-11-19T06:38:41;23.20;;;2.17;;
8219;SDS011;4151;51.110;7.020;2023-11-19T06:41:07;41.60;;;3.87;;
8219;SDS011;4151;51.110;7.020;2023-11-19T06:43:34;29.90;;;3.50;;
8219;SDS011;4151;51.110;7.020;2023-11-19T06:46:00;26.80;;;3.00;;
8219;SDS011;4151;51.110;7.020;2023-11-19T06:48:26;17.33;;;2.97;;
8219;SDS011;4151;51.110;7.020;2023-11-19T06:50:52;16.10;;;3.27;;
8219;SDS011;4151;51.110;7.020;2023-11-19T06:53:17;19.37;;;3.67;;
8219;SDS011;4151;51.110;7.020;2023-11-19T06:55:43;26.93;;;3.27;;
8219;SDS011;4151;51.110;7.020;2023-11-19T06:58:09;12.40;;;2.67;;
8219;SDS011;4151;51.110;7.020;2023-11-19T07:00:34;24.67;;;2.63;;
8219;SDS011;4151;51.110;7.020;2023-11-19T07:03:01;19.00;;;3.27;;
8219;SDS011;4151;51.110;7.020;2023-11-19T07:05:26;29.00;;;5.83;;
8219;SDS011;4151;51.110;7.020;2023-11-19T07:07:53;30.50;;;3.97;;
8219;SDS011;4151;51.110;7.020;2023-11-19T07:10:19;24.93;;;2.47;;
8219;SDS011;4151;51.110;7.020;2023-11-19T07:12:45;20.53;;;2.90;;
8219;SDS011;4151;51.110;7.020;2023-11-19T07:15:10;25.20;;;4.20;;
8219;SDS011;4151;51.110;7.020;2023-11-19T07:17:38;29.73;;;4.20;;
8219;SDS011;4151;51.110;7.020;2023-11-19T07:20:05;24.07;;;3.93;;
8219;SDS011;4151;51.110;7.020;2023-11-19T07:22:31;27.87;;;4.20;;
8219;SDS011;4151;51.110;7.020;2023-11-19T07:24:56;25.53;;;3.80;;
8219;SDS011;4151;51.110;7.020;2023-11-19T07:27:22;28.90;;;3.77;;
8219;SDS011;4151;51.110;7.020;2023-11-19T07:29:49;21.77;;;3.73;;
8219;SDS011;4151;51.110;7.020;2023-11-19T07:32:14;23.73;;;3.60;;
8219;SDS011;4151;51.110;7.020;2023-11-19T07:34:40;25.00;;;4.27;;
8219;SDS011;4151;51.110;7.020;2023-11-19T07:37:06;15.67;;;3.20;;
8219;SDS011;4151;51.110;7.020;2023-11-19T07:39:32;19.93;;;2.63;;
8219;SDS011;4151;51.110;7.020;2023-11-19T07:41:57;21.90;;;4.07;;
8219;SDS011;4151;51.110;7.020;2023-11-19T07:44:23;33.77;;;4.63;;
8219;SDS011;4151;51.110;7.020;2023-11-19T07:46:49;17.60;;;3.67;;
8219;SDS011;4151;51.110;7.020;2023-11-19T07:49:15;24.20;;;3.70;;
8219;SDS011;4151;51.110;7.020;2023-11-19T07:51:40;19.63;;;3.30;;
8219;SDS011;4151;51.110;7.020;2023-11-19T07:54:07;20.00;;;3.57;;
8219;SDS011;4151;51.110;7.020;2023-11-19T07:56:35;17.83;;;2.20;;
8219;SDS011;4151;51.110;7.020;2023-11-19T07:59:01;23.27;;;3.50;;
8219;SDS011;4151;51.110;7.020;2023-11-19T08:01:27;24.93;;;3.33;;
8219;SDS011;4151;51.110;7.020;2023-11-19T08:03:53;17.20;;;2.90;;
8219;SDS011;4151;51.110;7.020;2023-11-19T08:06:18;86.83;;;35.63;;
8219;SDS011;4151;51.110;7.020;2023-11-19T08:08:44;30.50;;;7.20;;
8219;SDS011;4151;51.110;7.020;2023-11-19T08:11:10;36.47;;;5.73;;
8219;SDS011;4151;51.110;7.020;2023-11-19T08:13:35;38.40;;;6.00;;
8219;SDS011;4151;51.110;7.020;2023-11-19T08:16:01;29.30;;;4.00;;
8219;SDS011;4151;51.110;7.020;2023-11-19T08:18:26;22.70;;;3.63;;
8219;SDS011;4151;51.110;7.020;2023-11-19T08:20:52;20.80;;;3.33;;
8219;SDS011;4151;51.110;7.020;2023-11-19T08:23:19;34.67;;;3.83;;
8219;SDS011;4151;51.110;7.020;2023-11-19T08:25:45;24.77;;;3.47;;
8219;SDS011;4151;51.110;7.020;2023-11-19T08:28:11;17.83;;;3.40;;
8219;SDS011;4151;51.110;7.020;2023-11-19T08:30:37;38.43;;;4.60;;
8219;SDS011;4151;51.110;7.020;2023-11-19T08:33:03;32.73;;;4.47;;
8219;SDS011;4151;51.110;7.020;2023-11-19T08:35:30;36.73;;;4.67;;
8219;SDS011;4151;51.110;7.020;2023-11-19T08:37:56;22.20;;;4.27;;
8219;SDS011;4151;51.110;7.020;2023-11-19T08:40:22;19.90;;;3.40;;
8219;SDS011;4151;51.110;7.020;2023-11-19T08:42:47;16.13;;;2.73;;
8219;SDS011;4151;51.110;7.020;2023-11-19T08:45:13;21.90;;;4.10;;
8219;SDS011;4151;51.110;7.020;2023-11-19T08:47:39;30.40;;;5.80;;
8219;SDS011;4151;51.110;7.020;2023-11-19T08:50:05;23.63;;;3.90;;
8219;SDS011;4151;51.110;7.020;2023-11-19T08:52:31;18.87;;;3.30;;
8219;SDS011;4151;51.110;7.020;2023-11-19T08:54:57;13.90;;;3.60;;
8219;SDS011;4151;51.110;7.020;2023-11-19T08:57:22;17.43;;;3.97;;
8219;SDS011;4151;51.110;7.020;2023-11-19T08:59:48;16.27;;;3.90;;
8219;SDS011;4151;51.110;7.020;2023-11-19T09:02:14;20.90;;;3.70;;
8219;SDS011;4151;51.110;7.020;2023-11-19T09:04:40;23.40;;;3.93;;
8219;SDS011;4151;51.110;7.020;2023-11-19T09:07:06;17.23;;;3.67;;
8219;SDS011;4151;51.110;7.020;2023-11-19T09:09:32;20.60;;;3.67;;
8219;SDS011;4151;51.110;7.020;2023-11-19T09:12:00;35.83;;;4.83;;
8219;SDS011;4151;51.110;7.020;2023-11-19T09:14:26;20.87;;;3.40;;
8219;SDS011;4151;51.110;7.020;2023-11-19T09:16:52;22.40;;;4.47;;
8219;SDS011;4151;51.110;7.020;2023-11-19T09:19:17;34.30;;;3.90;;
8219;SDS011;4151;51.110;7.020;2023-11-19T09:21:43;18.00;;;3.80;;
8219;SDS011;4151;51.110;7.020;2023-11-19T09:24:09;25.07;;;4.90;;
8219;SDS011;4151;51.110;7.020;2023-11-19T09:26:34;19.33;;;3.40;;
8219;SDS011;4151;51.110;7.020;2023-11-19T09:29:01;25.20;;;3.80;;
8219;SDS011;4151;51.110;7.020;2023-11-19T09:31:27;27.40;;;3.30;;
8219;SDS011;4151;51.110;7.020;2023-11-19T09:33:52;26.40;;;3.50;;
8219;SDS011;4151;51.110;7.020;2023-11-19T09:36:18;24.87;;;3.87;;
8219;SDS011;4151;51.110;7.020;2023-11-19T09:38:44;27.93;;;4.27;;
8219;SDS011;4151;51.110;7.020;2023-11-19T09:41:10;22.50;;;3.53;;
8219;SDS011;4151;51.110;7.020;2023-11-19T09:43:41;21.60;;;3.40;;
8219;SDS011;4151;51.110;7.020;2023-11-19T09:46:09;20.47;;;3.33;;
8219;SDS011;4151;51.110;7.020;2023-11-19T09:48:38;19.77;;;3.70;;
8219;SDS011;4151;51.110;7.020;2023-11-19T09:51:07;40.33;;;4.13;;
8219;SDS011;4151;51.110;7.020;2023-11-19T09:53:33;23.87;;;4.10;;
8219;SDS011;4151;51.110;7.020;2023-11-19T09:56:01;21.20;;;3.60;;
8219;SDS011;4151;51.110;7.020;2023-11-19T09:58:31;37.07;;;4.83;;
8219;SDS011;4151;51.110;7.020;2023-11-19T10:00:57;20.67;;;3.30;;
8219;SDS011;4151;51.110;7.020;2023-11-19T10:03:24;20.77;;;4.50;;
8219;SDS011;4151;51.110;7.020;2023-11-19T10:05:52;35.57;;;7.57;;
8219;SDS011;4151;51.110;7.020;2023-11-19T10:08:19;18.17;;;4.00;;
8219;SDS011;4151;51.110;7.020;2023-11-19T10:10:45;31.07;;;4.17;;
8219;SDS011;4151;51.110;7.020;2023-11-19T10:13:12;31.97;;;4.03;;
8219;SDS011;4151;51.110;7.020;2023-11-19T10:15:39;16.10;;;3.37;;
8219;SDS011;4151;51.110;7.020;2023-11-19T10:18:05;28.73;;;4.40;;
8219;SDS011;4151;51.110;7.020;2023-11-19T10:20:37;28.77;;;4.07;;
8219;SDS011;4151;51.110;7.020;2023-11-19T10:23:05;27.60;;;4.10;;
8219;SDS011;4151;51.110;7.020;2023-11-19T10:25:30;23.60;;;3.87;;
8219;SDS011;4151;51.110;7.020;2023-11-19T10:27:58;25.90;;;4.13;;
8219;SDS011;4151;51.110;7.020;2023-11-19T10:30:25;28.40;;;4.17;;
8219;SDS011;4151;51.110;7.020;2023-11-19T10:33:07;19.40;;;3.70;;
8219;SDS011;4151;51.110;7.020;2023-11-19T10:35:55;22.93;;;3.70;;
8219;SDS011;4151;51.110;7.020;2023-11-19T10:38:21;16.23;;;2.70;;
8219;SDS011;4151;51.110;7.020;2023-11-19T10:40:48;18.20;;;3.33;;
8219;SDS011;4151;51.110;7.020;2023-11-19T10:43:15;30.93;;;4.93;;
8219;SDS011;4151;51.110;7.020;2023-11-19T10:45:42;22.80;;;4.03;;
8219;SDS011;4151;51.110;7.020;2023-11-19T10:48:08;20.63;;;3.40;;
8219;SDS011;4151;51.110;7.020;2023-11-19T10:50:35;37.83;;;4.30;;
8219;SDS011;4151;51.110;7.020;2023-11-19T10:53:02;30.37;;;4.63;;
8219;SDS011;4151;51.110;7.020;2023-11-19T10:55:29;23.47;;;3.20;;
8219;SDS011;4151;51.110;7.020;2023-11-19T10:57:59;26.13;;;3.83;;
8219;SDS011;4151;51.110;7.020;2023-11-19T11:00:28;25.23;;;4.40;;
8219;SDS011;4151;51.110;7.020;2023-11-19T11:03:00;32.00;;;3.90;;
8219;SDS011;4151;51.110;7.020;2023-11-19T11:05:27;21.90;;;2.90;;
8219;SDS011;4151;51.110;7.020;2023-11-19T11:07:58;14.80;;;2.90;;
8219;SDS011;4151;51.110;7.020;2023-11-19T11:10:25;16.93;;;2.87;;
8219;SDS011;4151;51.110;7.020;2023-11-19T11:12:52;34.07;;;3.63;;
8219;SDS011;4151;51.110;7.020;2023-11-19T11:15:24;31.70;;;3.90;;
8219;SDS011;4151;51.110;7.020;2023-11-19T11:17:54;26.67;;;4.23;;
8219;SDS011;4151;51.110;7.020;2023-11-19T11:20:26;26.80;;;3.83;;
8219;SDS011;4151;51.110;7.020;2023-11-19T11:39:33;25.67;;;4.47;;
8219;SDS011;4151;51.110;7.020;2023-11-19T11:44:59;14.80;;;3.00;;
8219;SDS011;4151;51.110;7.020;2023-11-19T11:55:29;21.13;;;3.20;;
8219;SDS011;4151;51.110;7.020;2023-11-19T11:58:02;20.87;;;3.17;;
8219;SDS011;4151;51.110;7.020;2023-11-19T12:02:55;26.00;;;4.30;;
8219;SDS011;4151;51.110;7.020;2023-11-19T12:05:21;15.47;;;2.87;;
8219;SDS011;4151;51.110;7.020;2023-11-19T12:08:02;21.13;;;3.70;;
8219;SDS011;4151;51.110;7.020;2023-11-19T12:10:32;21.83;;;3.20;;
8219;SDS011;4151;51.110;7.020;2023-11-19T12:13:05;20.23;;;3.87;;
8219;SDS011;4151;51.110;7.020;2023-11-19T12:15:54;11.00;;;3.00;;
8219;SDS011;4151;51.110;7.020;2023-11-19T12:18:29;30.27;;;4.87;;
8219;SDS011;4151;51.110;7.020;2023-11-19T12:20:58;21.07;;;3.00;;
8219;SDS011;4151;51.110;7.020;2023-11-19T12:23:30;8.83;;;2.60;;
8219;SDS011;4151;51.110;7.020;2023-11-19T12:25:57;14.77;;;2.77;;
8219;SDS011;4151;51.110;7.020;2023-11-19T12:28:23;13.30;;;2.90;;
8219;SDS011;4151;51.110;7.020;2023-11-19T12:30:51;17.73;;;3.00;;
8219;SDS011;4151;51.110;7.020;2023-11-19T12:33:18;15.97;;;2.47;;
8219;SDS011;4151;51.110;7.020;2023-11-19T12:35:45;24.27;;;3.43;;
8219;SDS011;4151;51.110;7.020;2023-11-19T12:38:24;21.60;;;3.20;;
8219;SDS011;4151;51.110;7.020;2023-11-19T12:41:04;22.17;;;2.67;;
8219;SDS011;4151;51.110;7.020;2023-11-19T12:43:30;14.17;;;3.30;;
8219;SDS011;4151;51.110;7.020;2023-11-19T12:45:56;17.23;;;3.73;;
8219;SDS011;4151;51.110;7.020;2023-11-19T12:48:21;29.73;;;3.03;;
8219;SDS011;4151;51.110;7.020;2023-11-19T12:50:51;13.13;;;2.40;;
8219;SDS011;4151;51.110;7.020;2023-11-19T12:53:18;16.00;;;2.90;;
8219;SDS011;4151;51.110;7.020;2023-11-19T12:55:43;19.70;;;2.23;;
8219;SDS011;4151;51.110;7.020;2023-11-19T12:58:09;20.97;;;2.60;;
8219;SDS011;4151;51.110;7.020;2023-11-19T13:00:35;28.30;;;2.53;;
8219;SDS011;4151;51.110;7.020;2023-11-19T13:03:01;22.03;;;2.97;;
8219;SDS011;4151;51.110;7.020;2023-11-19T13:05:30;18.90;;;3.23;;
8219;SDS011;4151;51.110;7.020;2023-11-19T13:08:07;16.70;;;2.80;;
8219;SDS011;4151;51.110;7.020;2023-11-19T13:11:07;19.10;;;3.93;;
8219;SDS011;4151;51.110;7.020;2023-11-19T13:13:26;22.97;;;3.30;;
8219;SDS011;4151;51.110;7.020;2023-11-19T13:15:51;13.20;;;2.77;;
8219;SDS011;4151;51.110;7.020;2023-11-19T13:18:17;21.53;;;3.90;;
8219;SDS011;4151;51.110;7.020;2023-11-19T13:20:42;18.47;;;2.20;;
8219;SDS011;4151;51.110;7.020;2023-11-19T13:23:08;14.03;;;2.43;;
8219;SDS011;4151;51.110;7.020;2023-11-19T13:25:35;28.00;;;3.23;;
8219;SDS011;4151;51.110;7.020;2023-11-19T13:28:01;15.93;;;3.10;;
8219;SDS011;4151;51.110;7.020;2023-11-19T13:30:27;20.37;;;3.30;;
8219;SDS011;4151;51.110;7.020;2023-11-19T13:32:54;20.10;;;2.67;;
8219;SDS011;4151;51.110;7.020;2023-11-19T13:35:20;18.13;;;3.20;;
8219;SDS011;4151;51.110;7.020;2023-11-19T13:37:46;22.83;;;2.90;;
8219;SDS011;4151;51.110;7.020;2023-11-19T13:40:12;17.77;;;3.00;;
8219;SDS011;4151;51.110;7.020;2023-11-19T13:42:43;28.70;;;3.30;;
8219;SDS011;4151;51.110;7.020;2023-11-19T13:47:37;20.40;;;3.27;;
8219;SDS011;4151;51.110;7.020;2023-11-19T13:50:06;22.03;;;3.30;;
8219;SDS011;4151;51.110;7.020;2023-11-19T13:52:33;11.03;;;2.83;;
8219;SDS011;4151;51.110;7.020;2023-11-19T13:54:58;18.13;;;3.40;;
8219;SDS011;4151;51.110;7.020;2023-11-19T13:57:24;16.97;;;2.97;;
8219;SDS011;4151;51.110;7.020;2023-11-19T13:59:49;17.07;;;2.73;;
8219;SDS011;4151;51.110;7.020;2023-11-19T14:02:15;29.13;;;3.60;;
8219;SDS011;4151;51.110;7.020;2023-11-19T14:04:40;12.00;;;2.80;;
8219;SDS011;4151;51.110;7.020;2023-11-19T14:07:06;22.87;;;3.07;;
8219;SDS011;4151;51.110;7.020;2023-11-19T14:09:32;24.77;;;3.80;;
8219;SDS011;4151;51.110;7.020;2023-11-19T14:11:58;15.07;;;2.93;;
8219;SDS011;4151;51.110;7.020;2023-11-19T14:14:23;24.50;;;3.80;;
8219;SDS011;4151;51.110;7.020;2023-11-19T14:16:49;20.23;;;2.90;;
8219;SDS011;4151;51.110;7.020;2023-11-19T14:19:14;15.93;;;3.17;;
8219;SDS011;4151;51.110;7.020;2023-11-19T14:21:40;30.70;;;3.23;;
8219;SDS011;4151;51.110;7.020;2023-11-19T14:24:06;23.93;;;3.80;;
8219;SDS011;4151;51.110;7.020;2023-11-19T14:26:31;20.07;;;3.70;;
8219;SDS011;4151;51.110;7.020;2023-11-19T14:28:57;18.67;;;2.80;;
8219;SDS011;4151;51.110;7.020;2023-11-19T14:31:22;21.37;;;3.03;;
8219;SDS011;4151;51.110;7.020;2023-11-19T14:33:48;14.30;;;2.80;;
8219;SDS011;4151;51.110;7.020;2023-11-19T14:36:14;17.83;;;2.90;;
8219;SDS011;4151;51.110;7.020;2023-11-19T14:38:40;14.90;;;3.50;;
8219;SDS011;4151;51.110;7.020;2023-11-19T14:41:06;26.37;;;2.97;;
8219;SDS011;4151;51.110;7.020;2023-11-19T14:43:32;28.30;;;4.40;;
8219;SDS011;4151;51.110;7.020;2023-11-19T14:45:58;15.90;;;4.30;;
8219;SDS011;4151;51.110;7.020;2023-11-19T14:48:23;23.20;;;3.33;;
8219;SDS011;4151;51.110;7.020;2023-11-19T14:50:49;24.67;;;4.20;;
8219;SDS011;4151;51.110;7.020;2023-11-19T14:53:15;13.93;;;3.60;;
8219;SDS011;4151;51.110;7.020;2023-11-19T14:55:40;18.17;;;2.63;;
8219;SDS011;4151;51.110;7.020;2023-11-19T14:58:06;22.37;;;2.60;;
8219;SDS011;4151;51.110;7.020;2023-11-19T15:00:32;15.57;;;2.80;;
8219;SDS011;4151;51.110;7.020;2023-11-19T15:02:58;17.97;;;3.07;;
8219;SDS011;4151;51.110;7.020;2023-11-19T15:05:24;15.23;;;3.23;;
8219;SDS011;4151;51.110;7.020;2023-11-19T15:07:50;15.07;;;2.73;;
8219;SDS011;4151;51.110;7.020;2023-11-19T15:10:15;13.63;;;2.83;;
8219;SDS011;4151;51.110;7.020;2023-11-19T15:12:41;15.63;;;3.03;;
8219;SDS011;4151;51.110;7.020;2023-11-19T15:15:07;16.47;;;2.20;;
8219;SDS011;4151;51.110;7.020;2023-11-19T15:17:38;13.33;;;2.20;;
8219;SDS011;4151;51.110;7.020;2023-11-19T15:20:04;10.83;;;3.00;;
8219;SDS011;4151;51.110;7.020;2023-11-19T15:22:30;10.77;;;2.87;;
8219;SDS011;4151;51.110;7.020;2023-11-19T15:24:56;17.17;;;2.47;;
8219;SDS011;4151;51.110;7.020;2023-11-19T15:27:22;19.33;;;4.40;;
8219;SDS011;4151;51.110;7.020;2023-11-19T15:29:47;17.83;;;3.57;;
8219;SDS011;4151;51.110;7.020;2023-11-19T15:32:13;14.30;;;2.83;;
8219;SDS011;4151;51.110;7.020;2023-11-19T15:34:39;23.47;;;4.13;;